• Join FlightAware (Why Join?)
  • Login
  • US Flag 
09:10AM EDT


 

Airport Tracker/Info


-or-


 

Live Flight TrackerFlight Track Log ✈ EGF3062 ✈ 25-Apr-2012 ✈ KLAX - KPHX

Flight Track Log - Related Links

Times and Time Zones

All times are in EDT time to prevent confusion due to time zone crossing. See the EGF3062 flight status page for this flight to view local times or setup timezone preferences in your user account.

Time Position Orientation Groundspeed Altitude Reporting Facility
EDT Latitude Longitude Course Direction KTS MPH feet Rate Location/Type
07:04PM 33.9395 -118.3717 238° Southwest  Level FlightAware Approximate
07:05PM 33.9333 -118.5174 173° South  Level FlightAware Approximate
07:06PM 33.8681 -118.5078 184° South 220 253 5,000  Level Los Angeles Center
07:07PM 33.7928 -118.5133 183° South 237 273 7,800 2,700 Climbing Los Angeles Center
07:08PM 33.7197 -118.5186 119° Southeast 255 293 10,500 2,100 Climbing Los Angeles Center
07:09PM 33.6856 -118.4453 91° East 211 243 12,000 1,500 Climbing Los Angeles Center
07:10PM 33.6836 -118.3381 90° East 254 292 13,500 1,500 Climbing Los Angeles Center
07:11PM 33.6833 -118.2231 91° East 290 334 15,000 1,620 Climbing Los Angeles Center
07:12PM 33.6811 -118.1083 90° East 326 375 16,800 2,100 Climbing Los Angeles Center
07:13PM 33.6808 -117.9958 92° East 335 386 19,300 1,860 Climbing Los Angeles Center
07:14PM 33.6783 -117.8861 91° East 335 386 20,600 1,140 Climbing Los Angeles Center
07:15PM 33.6758 -117.7611 91° East 347 399 21,600 1,020 Climbing Los Angeles Center
07:16PM 33.6733 -117.6289 91° East 372 428 22,700 900 Climbing Los Angeles Center
07:17PM 33.6708 -117.5089 91° East 387 445 23,500 900 Climbing Los Angeles Center
07:18PM 33.6681 -117.3717 91° East 401 461 24,600 1,020 Climbing Los Angeles Center
07:19PM 33.6653 -117.2269 93° East 414 476 25,600 960 Climbing Los Angeles Center
07:20PM 33.6581 -117.0844 91° East 419 482 26,600 660 Climbing Los Angeles Center
07:21PM 33.6550 -116.9397 92° East 424 488 27,000 180 Climbing Los Angeles Center
07:22PM 33.6497 -116.7875 92° East 437 503 27,000  Level Los Angeles Center
07:23PM 33.6461 -116.6328 92° East 457 526 27,000 360 Level Los Angeles Center
07:24PM 33.6406 -116.4756 92° East 464 534 27,800 1,320 Climbing Los Angeles Center
07:25PM 33.6367 -116.3333 93° East 452 520 29,700 1,500 Climbing Los Angeles Center
07:26PM 33.6306 -116.1911 91° East 437 503 30,800 1,020 Climbing Los Angeles Center
07:27PM 33.6286 -116.0464 92° East 429 494 31,800 1,020 Climbing Los Angeles Center
07:28PM 33.6242 -115.8967 92° East 429 494 32,900 540 Climbing Los Angeles Center
07:29PM 33.6197 -115.7469 91° East 443 510 32,900  Level Los Angeles Center
07:30PM 33.6169 -115.5975 91° East 448 516 33,000  Climbing Los Angeles Center
07:31PM 33.6142 -115.4553 91° East 436 502 33,000  Level Los Angeles Center
07:32PM 33.6111 -115.3106 91° East 436 502 33,000  Level Los Angeles Center
07:33PM 33.6081 -115.1633 92° East 436 502 33,000  Level Los Angeles Center
07:34PM 33.6028 -115.0189 92° East 436 502 33,000  Level Los Angeles Center
07:35PM 33.5992 -114.8717 95° East 441 507 33,000  Level Los Angeles Center
07:36PM 33.5892 -114.7247 103° East 441 507 33,000 -900 Level Los Angeles Center
07:38PM 33.5411 -114.4708 103° East 458 527 30,600 -1,980 Descending Albuquerque Center
07:39PM 33.5122 -114.3264 105° East 458 527 27,600 -2,760 Descending Albuquerque Center
07:40PM 33.4822 -114.1919 103° East 444 511 25,100 -1,380 Descending Albuquerque Center
07:41PM 33.4567 -114.0556 103° East 426 490 24,900 -600 Descending Albuquerque Center
07:42PM 33.4308 -113.9167 104° East 426 490 24,000 -1,200 Descending Albuquerque Center
07:43PM 33.4028 -113.7828 104° East 426 490 22,500 -1,740 Descending Albuquerque Center
07:44PM 33.3744 -113.6489 104° East 421 484 20,600 -1,980 Descending Albuquerque Center
07:45PM 33.3494 -113.5275 104° East 400 460 18,600 -2,040 Descending Albuquerque Center
07:46PM 33.3244 -113.4064 102° East 382 440 16,600 -1,620 Descending Albuquerque Center
07:47PM 33.3031 -113.2883 105° East 377 434 15,400 -840 Descending Albuquerque Center
07:48PM 33.2756 -113.1697 91° East 365 420 15,000 -300 Descending Albuquerque Center
07:49PM 33.2731 -113.0478 88° East 355 409 14,900 -420 Descending Albuquerque Center
07:50PM 33.2761 -112.9361 87° East 350 403 14,200 -60 Descending Albuquerque Center
07:51PM 33.2814 -112.8247 83° East 345 397 14,800 300 Climbing Albuquerque Center
07:52PM 33.2925 -112.7164 95° East 340 391 14,900  Climbing Albuquerque Center
07:53PM 33.2847 -112.6089 87° East 330 380 14,900 -900 Level Albuquerque Center
07:54PM 33.2892 -112.5100 86° East 330 380 13,200 -1,560 Descending Albuquerque Center
07:55PM 33.3000 -112.3333 90° East 307 353 10,900 -1,380 Descending Phoenix TRACON
07:56PM 33.3000 -112.2333 90° East 299 344 9,700 -960 Descending Phoenix TRACON
07:57PM 33.3000 -112.1333 73° East 280 322 9,000 -540 Descending Phoenix TRACON
07:58PM 33.3167 -112.0667 77° East 248 285 8,700 -900 Descending Phoenix TRACON
07:59PM 33.3333 -111.9833 77° East 251 289 7,300 -1,680 Descending Phoenix TRACON
08:00PM 33.3500 -111.9000 51° Northeast 248 285 5,400 -1,620 Descending Phoenix TRACON
08:01PM 33.3833 -111.8500 51° Northeast 219 252 3,900 -1,380 Descending Phoenix TRACON